createdAt,value
2018-09-27T00:00:02.560Z,0
2018-09-27T00:05:03.291Z,0
2018-09-27T00:10:02.993Z,0
2018-09-27T00:15:02.798Z,0
2018-09-27T00:20:03.486Z,0
2018-09-27T00:25:03.101Z,0
2018-09-27T00:30:02.721Z,0
2018-09-27T00:35:03.488Z,0
2018-09-27T00:40:03.217Z,0
2018-09-27T00:45:02.849Z,2
2018-09-27T00:50:03.659Z,2
2018-09-27T00:55:03.267Z,2
2018-09-27T01:00:02.855Z,2
2018-09-27T01:05:03.542Z,0
2018-09-27T01:10:03.345Z,3
2018-09-27T01:15:03.022Z,2
2018-09-27T01:20:02.567Z,2
2018-09-27T01:25:03.323Z,3
2018-09-27T01:30:02.907Z,2
2018-09-27T01:35:02.848Z,2
2018-09-27T01:40:02.567Z,2
2018-09-27T01:45:03.289Z,3
2018-09-27T01:50:02.907Z,3
2018-09-27T01:55:02.519Z,3
2018-09-27T02:00:03.219Z,3
2018-09-27T02:05:03.043Z,2
2018-09-27T02:10:02.704Z,2
2018-09-27T02:15:03.402Z,2
2018-09-27T02:20:03.092Z,2
2018-09-27T02:25:02.717Z,3
2018-09-27T02:30:03.470Z,3
2018-09-27T02:35:03.079Z,3
2018-09-27T02:40:02.740Z,0
2018-09-27T02:45:03.453Z,3
2018-09-27T02:50:03.040Z,0
2018-09-27T02:55:02.701Z,1
2018-09-27T03:00:03.625Z,2
2018-09-27T03:05:03.226Z,3
2018-09-27T03:10:02.932Z,1
2018-09-27T03:15:03.562Z,1
2018-09-27T03:20:03.197Z,2
2018-09-27T03:25:02.893Z,1
2018-09-27T03:30:03.559Z,2
2018-09-27T03:35:03.188Z,1
2018-09-27T03:40:03.208Z,2
2018-09-27T03:45:03.017Z,2
2018-09-27T03:50:02.642Z,0
2018-09-27T03:55:03.165Z,0
2018-09-27T04:00:02.923Z,0
2018-09-27T04:05:03.528Z,0
2018-09-27T04:10:03.297Z,0
2018-09-27T04:15:02.956Z,0
2018-09-27T04:20:02.584Z,0
2018-09-27T04:25:03.147Z,0
2018-09-27T04:30:03.212Z,0
2018-09-27T04:35:02.838Z,2
2018-09-27T04:40:03.498Z,0
2018-09-27T04:45:03.052Z,0
2018-09-27T04:50:02.618Z,0
2018-09-27T04:55:03.266Z,0
2018-09-27T05:00:03.289Z,0
2018-09-27T05:05:03.218Z,0
2018-09-27T05:10:02.932Z,0
2018-09-27T05:15:03.535Z,0
2018-09-27T05:20:03.192Z,0
2018-09-27T05:25:02.860Z,0
2018-09-27T05:30:03.585Z,0
2018-09-27T05:35:03.230Z,0
2018-09-27T05:40:02.890Z,0
2018-09-27T05:45:03.512Z,1
2018-09-27T05:50:03.095Z,2
2018-09-27T05:55:02.728Z,0
2018-09-27T06:00:03.313Z,0
2018-09-27T06:05:03.041Z,0
2018-09-27T06:10:02.675Z,1
2018-09-27T06:15:03.261Z,0
2018-09-27T06:20:02.831Z,1
2018-09-27T06:25:03.456Z,0
2018-09-27T06:30:03.104Z,0
2018-09-27T06:35:03.057Z,0
2018-09-27T06:40:02.891Z,0
2018-09-27T06:45:03.530Z,1
2018-09-27T06:50:03.052Z,0
2018-09-27T06:55:03.451Z,1
2018-09-27T07:00:03.671Z,0
2018-09-27T07:05:03.877Z,2
2018-09-27T07:10:03.532Z,0
2018-09-27T07:15:03.145Z,2
2018-09-27T07:20:02.856Z,1
2018-09-27T07:25:03.716Z,0
2018-09-27T07:30:03.628Z,0
2018-09-27T07:35:03.227Z,2
2018-09-27T07:40:02.927Z,2
2018-09-27T07:45:02.610Z,3
2018-09-27T07:50:03.157Z,3
2018-09-27T07:55:02.733Z,4
2018-09-27T08:00:03.539Z,3
2018-09-27T08:05:03.286Z,0
2018-09-27T08:10:03.063Z,3
2018-09-27T08:15:02.578Z,0
2018-09-27T08:20:03.187Z,0
2018-09-27T08:25:02.771Z,0
2018-09-27T08:30:03.397Z,0
2018-09-27T08:35:02.980Z,0
2018-09-27T08:40:02.656Z,0
2018-09-27T08:45:04.407Z,0
2018-09-27T08:50:02.852Z,0
2018-09-27T08:55:03.485Z,0
2018-09-27T09:00:03.100Z,1
2018-09-27T09:05:02.759Z,0
2018-09-27T09:10:03.388Z,0
2018-09-27T09:15:03.020Z,0
2018-09-27T09:20:02.678Z,3
2018-09-27T09:25:03.261Z,0
2018-09-27T09:30:02.906Z,0
2018-09-27T09:35:03.502Z,2
2018-09-27T09:40:03.196Z,2
2018-09-27T09:45:02.869Z,2
2018-09-27T09:50:03.805Z,2
2018-09-27T09:55:02.635Z,1
2018-09-27T10:00:03.198Z,2
2018-09-27T10:05:02.767Z,3
2018-09-27T10:10:03.453Z,3
2018-09-27T10:15:03.083Z,2
2018-09-27T10:20:02.746Z,0
2018-09-27T10:25:03.379Z,2
2018-09-27T10:30:02.954Z,2
2018-09-27T10:35:02.584Z,3
2018-09-27T10:40:03.292Z,0
2018-09-27T10:45:03.152Z,1
2018-09-27T10:50:02.723Z,1
2018-09-27T10:55:03.320Z,0
2018-09-27T11:00:02.894Z,1
2018-09-27T11:05:03.496Z,0
2018-09-27T11:10:03.215Z,0
2018-09-27T11:15:02.853Z,0
2018-09-27T11:20:03.484Z,2
2018-09-27T11:25:02.997Z,3
2018-09-27T11:30:03.542Z,3
2018-09-27T11:35:03.154Z,2
2018-09-27T11:40:02.938Z,3
2018-09-27T11:45:03.467Z,3
2018-09-27T11:50:03.812Z,2
2018-09-27T11:55:03.221Z,3
2018-09-27T12:00:03.103Z,2
2018-09-27T12:05:02.799Z,5
2018-09-27T12:10:03.516Z,4
2018-09-27T12:15:03.159Z,5
2018-09-27T12:20:03.264Z,7
2018-09-27T12:25:03.041Z,3
2018-09-27T12:30:02.633Z,7
2018-09-27T12:35:03.337Z,4
2018-09-27T12:40:02.990Z,5
2018-09-27T12:45:04.064Z,5
2018-09-27T12:50:02.896Z,5
2018-09-27T12:55:03.453Z,4
2018-09-27T13:00:03.064Z,3
2018-09-27T13:05:02.653Z,3
2018-09-27T13:10:04.251Z,3
2018-09-27T13:15:03.860Z,2
2018-09-27T13:20:03.846Z,3
2018-09-27T13:25:03.275Z,3
2018-09-27T13:30:03.537Z,5
2018-09-27T13:35:03.240Z,2
2018-09-27T13:40:03.551Z,5
2018-09-27T13:45:02.855Z,0
2018-09-27T13:50:02.662Z,5
2018-09-27T13:55:03.657Z,5
2018-09-27T14:00:03.507Z,2
2018-09-27T14:05:03.189Z,2
2018-09-27T14:10:02.892Z,3
2018-09-27T14:15:02.592Z,7
2018-09-27T14:20:03.267Z,3
2018-09-27T14:25:02.950Z,5
2018-09-27T14:30:02.590Z,5
2018-09-27T14:35:03.232Z,0
2018-09-27T14:40:02.956Z,5
2018-09-27T14:45:02.582Z,3
2018-09-27T14:50:03.427Z,3
2018-09-27T14:55:03.893Z,8
2018-09-27T15:00:02.648Z,4
2018-09-27T15:05:03.176Z,6
2018-09-27T15:10:03.538Z,6
2018-09-27T15:15:02.600Z,4
2018-09-27T15:20:03.167Z,7
2018-09-27T15:25:02.769Z,5
2018-09-27T15:30:03.421Z,4
2018-09-27T15:35:03.030Z,3
2018-09-27T15:40:03.106Z,4
2018-09-27T15:45:03.082Z,3
2018-09-27T15:50:02.695Z,4
2018-09-27T15:55:03.274Z,1
2018-09-27T16:00:02.878Z,2
2018-09-27T16:05:03.550Z,0
2018-09-27T16:10:03.225Z,0
2018-09-27T16:15:02.892Z,4
2018-09-27T16:20:03.518Z,1
2018-09-27T16:25:03.108Z,0
2018-09-27T16:30:02.676Z,2
2018-09-27T16:35:03.313Z,0
2018-09-27T16:40:03.082Z,0
2018-09-27T16:45:02.719Z,0
2018-09-27T16:50:03.478Z,0
2018-09-27T16:55:03.053Z,0
2018-09-27T17:00:02.694Z,0
2018-09-27T17:05:03.424Z,0
2018-09-27T17:10:03.148Z,0
2018-09-27T17:15:02.813Z,0
2018-09-27T17:20:03.340Z,0
2018-09-27T17:25:02.933Z,0
2018-09-27T17:30:03.688Z,0
2018-09-27T17:35:03.277Z,0
2018-09-27T17:40:02.908Z,0
2018-09-27T17:45:03.497Z,0
2018-09-27T17:50:03.046Z,0
2018-09-27T17:55:02.693Z,0
2018-09-27T18:00:03.339Z,0
2018-09-27T18:05:03.025Z,0
2018-09-27T18:10:02.760Z,0
2018-09-27T18:15:03.349Z,0
2018-09-27T18:20:02.959Z,0
2018-09-27T18:25:02.604Z,0
2018-09-27T18:30:03.186Z,0
2018-09-27T18:35:02.892Z,0
2018-09-27T18:40:02.813Z,0
2018-09-27T18:45:02.930Z,0
2018-09-27T18:50:02.583Z,0
2018-09-27T18:55:03.257Z,0
2018-09-27T19:00:02.905Z,0
2018-09-27T19:05:03.553Z,0
2018-09-27T19:10:03.251Z,0
2018-09-27T19:15:02.833Z,0
2018-09-27T19:20:03.530Z,0
2018-09-27T19:25:03.263Z,0
2018-09-27T19:30:02.894Z,0
2018-09-27T19:35:03.553Z,0
2018-09-27T19:40:03.323Z,0
2018-09-27T19:45:03.039Z,0
2018-09-27T19:50:02.630Z,0
2018-09-27T19:55:03.275Z,1
2018-09-27T20:00:02.808Z,0
2018-09-27T20:05:03.537Z,1
2018-09-27T20:10:03.663Z,2
2018-09-27T20:15:03.628Z,0
2018-09-27T20:20:03.258Z,1
2018-09-27T20:25:02.923Z,0
2018-09-27T20:30:03.632Z,0
2018-09-27T20:35:03.345Z,0
2018-09-27T20:40:03.043Z,0
2018-09-27T20:45:02.893Z,0
2018-09-27T20:50:03.508Z,0
2018-09-27T20:55:02.985Z,0
2018-09-27T21:00:02.777Z,0
2018-09-27T21:05:03.516Z,0
2018-09-27T21:10:03.239Z,0
2018-09-27T21:15:02.959Z,0
2018-09-27T21:20:03.590Z,0
2018-09-27T21:25:03.206Z,0
2018-09-27T21:30:03.175Z,0
2018-09-27T21:35:02.807Z,0
2018-09-27T21:40:03.480Z,0
2018-09-27T21:45:03.118Z,0
2018-09-27T21:50:03.478Z,0
2018-09-27T21:55:03.363Z,0
2018-09-27T22:00:03.037Z,0
2018-09-27T22:05:03.398Z,0
2018-09-27T22:10:02.953Z,0
2018-09-27T22:15:02.883Z,0
2018-09-27T22:20:03.529Z,0
2018-09-27T22:25:03.145Z,0
2018-09-27T22:30:02.774Z,0
2018-09-27T22:35:03.390Z,0
2018-09-27T22:40:03.061Z,0
2018-09-27T22:45:02.711Z,0
2018-09-27T22:50:03.359Z,0
2018-09-27T22:55:03.008Z,0
2018-09-27T23:00:02.803Z,0
2018-09-27T23:05:03.132Z,0
2018-09-27T23:10:02.762Z,0
2018-09-27T23:15:03.382Z,0
2018-09-27T23:20:02.901Z,0
2018-09-27T23:25:03.465Z,0
2018-09-27T23:30:03.172Z,0
2018-09-27T23:35:02.762Z,0
2018-09-27T23:40:03.417Z,0
2018-09-27T23:45:03.149Z,0
2018-09-27T23:50:02.839Z,0
2018-09-27T23:55:03.373Z,0
